createdAt,value
2018-12-21T00:01:54.023Z,5.11
2018-12-21T00:04:23.638Z,5.20
2018-12-21T00:06:53.313Z,5.26
2018-12-21T00:09:23.103Z,5.34
2018-12-21T00:11:52.806Z,5.42
2018-12-21T00:14:22.519Z,5.54
2018-12-21T00:16:51.889Z,5.60
2018-12-21T00:19:21.635Z,5.69
2018-12-21T00:21:51.310Z,5.81
2018-12-21T00:24:21.040Z,5.85
2018-12-21T00:26:50.410Z,5.92
2018-12-21T00:29:19.839Z,5.97
2018-12-21T00:31:54.427Z,6.01
2018-12-21T00:34:29.040Z,6.03
2018-12-21T00:37:03.872Z,6.07
2018-12-21T00:39:38.851Z,6.13
2018-12-21T00:42:13.758Z,6.13
2018-12-21T00:44:43.434Z,6.16
2018-12-21T00:47:15.671Z,6.17
2018-12-21T00:49:45.365Z,6.17
2018-12-21T00:52:15.211Z,6.19
2018-12-21T00:54:44.990Z,6.19
2018-12-21T00:57:14.706Z,6.20
2018-12-21T00:59:44.382Z,6.18
2018-12-21T01:02:14.208Z,6.20
2018-12-21T01:04:43.546Z,6.21
2018-12-21T01:07:13.642Z,6.21
2018-12-21T01:09:43.318Z,6.20
2018-12-21T01:12:13.590Z,6.21
2018-12-21T01:14:43.518Z,6.20
2018-12-21T01:17:13.250Z,6.23
2018-12-21T01:19:43.066Z,6.24
2018-12-21T01:22:12.393Z,6.23
2018-12-21T01:24:42.152Z,6.22
2018-12-21T01:27:12.076Z,6.21
2018-12-21T01:29:41.878Z,6.23
2018-12-21T01:32:11.262Z,6.23
2018-12-21T01:34:40.617Z,6.24
2018-12-21T01:37:10.113Z,6.25
2018-12-21T01:39:39.909Z,6.21
2018-12-21T01:42:09.670Z,6.09
2018-12-21T01:44:39.506Z,6.03
2018-12-21T01:47:09.220Z,6.04
2018-12-21T01:49:38.898Z,6.09
2018-12-21T01:52:08.804Z,6.10
2018-12-21T01:54:38.514Z,6.03
2018-12-21T01:57:08.341Z,5.89
2018-12-21T01:59:38.107Z,5.84
2018-12-21T02:02:07.987Z,5.84
2018-12-21T02:04:37.722Z,5.86
2018-12-21T02:07:07.432Z,5.85
2018-12-21T02:09:36.793Z,5.79
2018-12-21T02:12:06.584Z,5.74
2018-12-21T02:14:36.322Z,5.82
2018-12-21T02:17:06.102Z,5.91
2018-12-21T02:19:35.780Z,6.01
2018-12-21T02:22:05.161Z,6.13
2018-12-21T02:24:34.879Z,6.17
2018-12-21T02:27:04.619Z,6.21
2018-12-21T02:29:34.391Z,6.25
2018-12-21T02:32:03.688Z,6.28
2018-12-21T02:34:33.386Z,6.36
2018-12-21T02:37:03.061Z,6.32
2018-12-21T02:39:32.723Z,6.34
2018-12-21T02:42:02.435Z,6.36
2018-12-21T02:44:32.080Z,6.36
2018-12-21T02:47:01.772Z,6.34
2018-12-21T02:49:31.440Z,6.39
2018-12-21T02:52:05.369Z,6.44
2018-12-21T02:54:32.826Z,6.45
2018-12-21T02:57:02.470Z,6.47
2018-12-21T02:59:32.670Z,6.51
2018-12-21T03:02:02.402Z,6.53
2018-12-21T03:04:32.073Z,6.50
2018-12-21T03:07:01.772Z,6.44
2018-12-21T03:09:41.208Z,6.45
2018-12-21T03:15:17.565Z,6.56
2018-12-21T03:17:47.342Z,6.60
2018-12-21T03:20:17.080Z,6.66
2018-12-21T03:22:47.670Z,6.72
2018-12-21T03:25:18.151Z,6.75
2018-12-21T03:27:47.971Z,6.78
2018-12-21T03:30:17.768Z,6.76
2018-12-21T03:32:48.236Z,6.80
2018-12-21T03:35:18.545Z,6.77
2018-12-21T03:37:48.233Z,6.74
2018-12-21T03:40:19.512Z,6.75
2018-12-21T03:42:49.893Z,6.72
2018-12-21T03:45:20.202Z,6.70
2018-12-21T03:47:49.887Z,6.65
2018-12-21T03:50:20.113Z,6.64
2018-12-21T03:52:49.834Z,6.61
2018-12-21T03:55:19.554Z,6.60
2018-12-21T03:57:49.338Z,6.56
2018-12-21T04:00:19.078Z,6.55
2018-12-21T04:02:50.399Z,6.56
2018-12-21T04:05:20.042Z,6.57
2018-12-21T04:07:49.741Z,6.52
2018-12-21T04:10:19.718Z,6.51
2018-12-21T04:12:49.450Z,6.49
2018-12-21T04:15:19.256Z,6.52
2018-12-21T04:17:54.735Z,6.49
2018-12-21T04:20:37.246Z,6.48
2018-12-21T04:26:21.742Z,6.52
2018-12-21T04:28:52.377Z,6.52
2018-12-21T04:31:27.645Z,6.53
2018-12-21T04:34:08.977Z,6.53
2018-12-21T04:36:41.855Z,6.56
2018-12-21T04:39:15.093Z,6.63
2018-12-21T04:41:57.287Z,6.51
2018-12-21T04:44:30.225Z,6.46
2018-12-21T04:53:22.103Z,6.40
2018-12-21T04:55:55.941Z,6.38
2018-12-21T04:58:39.529Z,6.37
2018-12-21T05:01:10.415Z,6.38
2018-12-21T05:03:45.502Z,6.36
2018-12-21T05:06:21.361Z,6.34
2018-12-21T05:08:57.414Z,6.35
2018-12-21T05:11:32.865Z,6.36
2018-12-21T05:14:02.572Z,6.36
2018-12-21T05:16:32.461Z,6.37
2018-12-21T05:19:02.747Z,6.35
2018-12-21T05:21:32.533Z,6.29
2018-12-21T05:24:01.989Z,6.32
2018-12-21T05:26:31.935Z,6.27
2018-12-21T05:29:01.807Z,6.29
2018-12-21T05:31:31.526Z,6.31
2018-12-21T05:34:01.633Z,6.33
2018-12-21T05:36:34.500Z,6.28
2018-12-21T05:39:11.697Z,6.34
2018-12-21T05:41:41.513Z,6.32
2018-12-21T05:44:24.184Z,6.31
2018-12-21T05:46:55.052Z,6.32
2018-12-21T05:49:24.859Z,6.32
2018-12-21T05:51:55.555Z,6.30
2018-12-21T05:54:25.387Z,6.28
2018-12-21T05:56:55.348Z,6.21
2018-12-21T05:59:48.782Z,6.20
2018-12-21T06:02:18.629Z,6.21
2018-12-21T06:04:53.821Z,6.21
2018-12-21T06:07:41.861Z,6.18
2018-12-21T06:13:25.701Z,6.23
2018-12-21T06:15:57.814Z,6.16
2018-12-21T06:21:25.102Z,6.14
2018-12-21T06:23:59.013Z,6.06
2018-12-21T06:26:32.018Z,5.91
2018-12-21T06:29:08.585Z,5.77
2018-12-21T06:31:49.081Z,5.63
2018-12-21T06:34:28.125Z,5.61
2018-12-21T06:37:03.494Z,5.68
2018-12-21T06:39:40.289Z,5.81
2018-12-21T06:42:29.292Z,5.74
2018-12-21T06:45:03.237Z,5.71
2018-12-21T06:50:56.639Z,5.71
2018-12-21T06:59:39.758Z,5.85
2018-12-21T07:02:15.694Z,5.76
2018-12-21T07:04:51.908Z,5.70
2018-12-21T07:07:48.465Z,5.69
2018-12-21T07:13:25.478Z,5.71
2018-12-21T07:16:01.083Z,5.69
2018-12-21T07:18:32.447Z,5.61
2018-12-21T07:24:08.927Z,5.69
2018-12-21T07:29:53.016Z,5.73
2018-12-21T07:47:36.827Z,6.03
2018-12-21T07:53:12.724Z,6.06
2018-12-21T07:55:42.870Z,6.09
2018-12-21T07:58:13.359Z,6.10
2018-12-21T08:00:44.104Z,6.06
2018-12-21T08:03:15.429Z,6.05
2018-12-21T08:05:46.038Z,5.99
2018-12-21T08:08:16.667Z,5.89
2018-12-21T08:10:47.685Z,5.92
2018-12-21T08:13:17.836Z,5.89
2018-12-21T08:18:57.460Z,5.88
2018-12-21T08:21:55.219Z,5.92
2018-12-21T08:24:41.476Z,5.87
2018-12-21T08:27:20.959Z,5.98
2018-12-21T08:29:50.629Z,5.96
2018-12-21T08:32:20.349Z,5.97
2018-12-21T08:35:08.975Z,6.10
2018-12-21T08:37:38.378Z,6.19
2018-12-21T08:40:10.099Z,6.18
2018-12-21T08:42:39.807Z,6.19
2018-12-21T08:45:23.610Z,6.23
2018-12-21T08:47:53.246Z,6.27
2018-12-21T08:50:26.562Z,6.36
2018-12-21T08:53:12.343Z,6.40
2018-12-21T08:56:02.471Z,6.43
2018-12-21T08:58:37.436Z,6.50
2018-12-21T09:01:12.914Z,6.58
2018-12-21T09:03:44.047Z,6.55
2018-12-21T09:06:25.130Z,6.55
2018-12-21T09:09:01.578Z,6.56
2018-12-21T09:11:34.586Z,6.53
2018-12-21T09:14:07.165Z,6.66
2018-12-21T09:16:39.923Z,6.66
2018-12-21T09:19:16.631Z,6.79
2018-12-21T09:21:49.324Z,6.93
2018-12-21T09:24:22.974Z,7.06
2018-12-21T09:26:59.486Z,7.14
2018-12-21T09:29:30.354Z,7.20
2018-12-21T09:32:05.574Z,7.27
2018-12-21T09:34:41.330Z,7.33
2018-12-21T09:37:16.862Z,7.36
2018-12-21T09:39:50.503Z,7.39
2018-12-21T09:42:23.959Z,7.40
2018-12-21T09:44:56.697Z,7.45
2018-12-21T09:47:29.845Z,7.53
2018-12-21T09:50:02.256Z,7.57
2018-12-21T09:52:35.221Z,7.60
2018-12-21T09:55:07.267Z,7.66
2018-12-21T09:57:40.461Z,7.68
2018-12-21T10:00:13.653Z,7.70
2018-12-21T10:02:46.942Z,7.68
2018-12-21T10:05:19.725Z,7.73
2018-12-21T10:07:53.263Z,7.76
2018-12-21T10:10:23.998Z,7.61
2018-12-21T10:12:59.855Z,7.65
2018-12-21T10:15:37.044Z,7.68
2018-12-21T10:18:10.307Z,7.73
2018-12-21T10:20:46.549Z,7.80
2018-12-21T10:23:19.883Z,7.85
2018-12-21T10:25:52.635Z,7.92
2018-12-21T10:28:25.610Z,7.96
2018-12-21T10:30:58.545Z,8.00
2018-12-21T10:33:29.766Z,8.07
2018-12-21T10:36:03.118Z,8.12
2018-12-21T10:38:35.980Z,8.15
2018-12-21T10:41:09.701Z,8.23
2018-12-21T10:43:47.696Z,8.15
2018-12-21T10:46:24.433Z,8.16
2018-12-21T10:49:01.588Z,8.15
2018-12-21T10:51:34.680Z,8.19
2018-12-21T10:54:09.493Z,8.19
2018-12-21T10:56:47.052Z,8.18
2018-12-21T10:59:23.820Z,8.13
2018-12-21T11:04:53.334Z,7.83
2018-12-21T11:07:29.224Z,7.90
2018-12-21T11:10:05.156Z,7.78
2018-12-21T11:12:40.984Z,7.85
2018-12-21T11:15:34.929Z,7.83
2018-12-21T11:18:12.080Z,7.77
2018-12-21T11:20:45.156Z,7.71
2018-12-21T11:23:23.922Z,7.68
2018-12-21T11:25:54.370Z,7.74
2018-12-21T11:28:25.446Z,7.87
2018-12-21T11:30:55.630Z,7.86
2018-12-21T11:36:37.227Z,7.69
2018-12-21T11:39:08.692Z,7.58
2018-12-21T11:41:48.728Z,7.61
2018-12-21T11:44:37.468Z,7.68
2018-12-21T11:50:10.628Z,7.61
2018-12-21T11:52:40.588Z,7.52
2018-12-21T12:01:20.932Z,7.55
2018-12-21T12:03:56.846Z,7.57
2018-12-21T12:06:32.701Z,7.44
2018-12-21T12:12:08.876Z,7.21
2018-12-21T12:14:39.427Z,7.32
2018-12-21T12:17:16.104Z,7.31
2018-12-21T12:19:51.291Z,7.32
2018-12-21T12:22:22.532Z,7.34
2018-12-21T12:24:52.861Z,7.38
2018-12-21T12:27:26.968Z,7.46
2018-12-21T12:36:02.982Z,7.20
2018-12-21T12:38:32.767Z,7.23
2018-12-21T12:41:06.539Z,7.20
2018-12-21T12:43:34.375Z,7.18
2018-12-21T12:46:04.380Z,7.16
2018-12-21T12:48:34.148Z,7.13
2018-12-21T12:51:03.556Z,7.17
2018-12-21T12:53:32.980Z,7.08
2018-12-21T12:56:05.139Z,7.07
2018-12-21T12:58:49.262Z,7.17
2018-12-21T13:01:25.078Z,7.18
2018-12-21T13:04:15.296Z,7.14
2018-12-21T13:06:45.067Z,7.29
2018-12-21T13:09:14.794Z,7.36
2018-12-21T13:11:44.539Z,7.22
2018-12-21T13:14:16.582Z,7.12
2018-12-21T13:16:46.371Z,7.12
2018-12-21T13:19:16.144Z,7.11
2018-12-21T13:21:45.580Z,7.07
2018-12-21T13:24:14.970Z,6.98
2018-12-21T13:26:44.750Z,6.96
2018-12-21T13:29:14.496Z,6.94
2018-12-21T13:31:44.273Z,6.95
2018-12-21T13:34:14.035Z,6.99
2018-12-21T13:36:43.796Z,7.01
2018-12-21T13:39:13.304Z,6.99
2018-12-21T13:41:43.080Z,7.02
2018-12-21T13:47:25.512Z,7.05
2018-12-21T13:49:55.242Z,7.09
2018-12-21T13:52:24.935Z,7.05
2018-12-21T13:54:54.656Z,7.05
2018-12-21T13:57:24.000Z,6.94
2018-12-21T13:59:53.728Z,6.81
2018-12-21T14:02:23.659Z,6.86
2018-12-21T14:04:53.596Z,6.94
2018-12-21T14:07:23.340Z,6.92
2018-12-21T14:12:52.354Z,6.88
2018-12-21T14:15:22.107Z,6.83
2018-12-21T14:17:51.510Z,6.76
2018-12-21T14:20:20.894Z,6.76
2018-12-21T14:22:50.656Z,6.71
2018-12-21T14:25:28.572Z,6.75
2018-12-21T14:27:52.111Z,6.79
2018-12-21T14:30:21.490Z,6.78
2018-12-21T14:32:51.255Z,6.71
2018-12-21T14:35:20.996Z,6.64
2018-12-21T14:37:50.371Z,6.72
2018-12-21T14:40:20.029Z,6.58
2018-12-21T14:42:49.383Z,6.50
2018-12-21T14:45:18.764Z,6.53
2018-12-21T14:47:48.432Z,6.49
2018-12-21T14:50:18.698Z,6.57
2018-12-21T14:52:48.151Z,6.53
2018-12-21T14:55:18.231Z,6.52
2018-12-21T14:57:47.655Z,6.47
2018-12-21T15:00:17.053Z,6.44
2018-12-21T15:02:46.523Z,6.54
2018-12-21T15:05:16.272Z,6.61
2018-12-21T15:07:45.835Z,6.60
2018-12-21T15:10:15.600Z,6.58
2018-12-21T15:12:45.287Z,6.53
2018-12-21T15:15:14.765Z,6.50
2018-12-21T15:17:44.235Z,6.54
2018-12-21T15:20:14.567Z,6.54
2018-12-21T15:22:44.479Z,6.58
2018-12-21T15:25:14.320Z,6.55
2018-12-21T15:27:43.709Z,6.58
2018-12-21T15:30:13.117Z,6.63
2018-12-21T15:32:42.727Z,6.63
2018-12-21T15:35:12.504Z,6.62
2018-12-21T15:37:42.297Z,6.62
2018-12-21T15:40:11.664Z,6.67
2018-12-21T15:42:41.045Z,6.57
2018-12-21T15:45:10.816Z,6.63
2018-12-21T15:47:40.239Z,6.58
2018-12-21T15:50:11.926Z,6.64
2018-12-21T15:52:42.666Z,6.63
2018-12-21T15:55:18.823Z,6.58
2018-12-21T15:57:53.441Z,6.75
2018-12-21T16:00:23.367Z,6.58
2018-12-21T16:02:57.664Z,6.52
2018-12-21T16:05:27.513Z,6.52
2018-12-21T16:07:56.955Z,6.57
2018-12-21T16:10:26.349Z,6.59
2018-12-21T16:12:55.821Z,6.53
2018-12-21T16:15:26.328Z,6.55
2018-12-21T16:17:56.066Z,6.53
2018-12-21T16:20:25.455Z,6.55
2018-12-21T16:22:54.908Z,6.73
2018-12-21T16:25:24.627Z,6.74
2018-12-21T16:27:54.332Z,6.65
2018-12-21T16:30:23.862Z,6.64
2018-12-21T16:32:53.791Z,6.58
2018-12-21T16:41:21.596Z,6.61
2018-12-21T16:43:51.258Z,6.61
2018-12-21T16:46:21.112Z,6.62
2018-12-21T16:48:50.697Z,6.68
2018-12-21T16:51:21.466Z,6.72
2018-12-21T16:53:51.283Z,6.54
2018-12-21T16:56:20.995Z,6.68
2018-12-21T16:58:50.725Z,6.81
2018-12-21T17:01:20.571Z,6.87
2018-12-21T17:03:50.236Z,6.82
2018-12-21T17:06:21.630Z,6.77
2018-12-21T17:08:51.463Z,6.73
2018-12-21T17:11:21.266Z,6.77
2018-12-21T17:13:51.132Z,6.92
2018-12-21T17:16:20.943Z,6.91
2018-12-21T17:18:50.503Z,6.87
2018-12-21T17:21:20.145Z,6.83
2018-12-21T17:23:49.631Z,6.89
2018-12-21T17:26:21.395Z,6.96
2018-12-21T17:28:50.791Z,6.98
2018-12-21T17:31:20.453Z,6.93
2018-12-21T17:33:50.190Z,6.95
2018-12-21T17:36:19.554Z,6.98
2018-12-21T17:38:49.018Z,6.93
2018-12-21T17:41:18.762Z,6.99
2018-12-21T17:43:48.977Z,7.01
2018-12-21T17:46:18.368Z,7.13
2018-12-21T17:48:47.778Z,7.14
2018-12-21T17:51:17.551Z,7.12
2018-12-21T17:53:47.318Z,7.21
2018-12-21T17:56:16.630Z,7.26
2018-12-21T17:58:46.381Z,7.23
2018-12-21T18:01:16.101Z,7.35
2018-12-21T18:03:57.915Z,7.38
2018-12-21T18:06:27.722Z,7.43
2018-12-21T18:08:57.472Z,7.49
2018-12-21T18:11:27.202Z,7.53
2018-12-21T18:13:56.960Z,7.58
2018-12-21T18:16:27.362Z,7.66
2018-12-21T18:18:56.694Z,7.67
2018-12-21T18:21:26.534Z,7.69
2018-12-21T18:23:56.891Z,7.73
2018-12-21T18:26:27.382Z,7.75
2018-12-21T18:28:57.212Z,7.77
2018-12-21T18:31:48.758Z,7.81
2018-12-21T18:34:23.070Z,7.81
2018-12-21T18:36:52.922Z,7.79
2018-12-21T18:39:22.857Z,7.74
2018-12-21T18:42:20.923Z,7.76
2018-12-21T18:44:50.800Z,7.80
2018-12-21T18:47:20.654Z,7.79
2018-12-21T18:49:57.834Z,7.78
2018-12-21T18:59:05.598Z,7.98
2018-12-21T19:04:40.370Z,8.12
2018-12-21T19:16:19.234Z,8.60
2018-12-21T19:25:06.106Z,9.18
2018-12-21T19:27:48.858Z,9.25
2018-12-21T19:30:27.175Z,9.29
2018-12-21T19:33:06.882Z,9.32
2018-12-21T19:35:41.797Z,9.32
2018-12-21T19:38:33.834Z,9.34
2018-12-21T19:41:03.603Z,9.37
2018-12-21T19:43:33.394Z,9.39
2018-12-21T19:46:03.057Z,9.40
2018-12-21T19:48:33.785Z,9.42
2018-12-21T19:54:05.896Z,9.34
2018-12-21T19:57:04.405Z,9.26
2018-12-21T19:59:30.598Z,9.29
2018-12-21T20:02:00.431Z,9.24
2018-12-21T20:04:30.225Z,9.19
2018-12-21T20:09:53.141Z,9.31
2018-12-21T20:12:41.417Z,9.27
2018-12-21T20:15:11.617Z,9.21
2018-12-21T20:17:47.257Z,9.11
2018-12-21T20:23:40.825Z,8.87
2018-12-21T20:26:14.256Z,8.70
2018-12-21T20:28:44.340Z,8.68
2018-12-21T20:31:20.286Z,8.68
2018-12-21T20:34:04.499Z,8.65
2018-12-21T20:36:47.591Z,8.61
2018-12-21T20:46:13.031Z,8.91
2018-12-21T20:55:10.083Z,9.43
2018-12-21T21:00:49.419Z,9.81
2018-12-21T21:03:19.220Z,9.99
2018-12-21T21:09:00.194Z,10.16
2018-12-21T21:11:42.257Z,10.15
2018-12-21T21:17:32.883Z,10.30
2018-12-21T21:20:02.660Z,10.36
2018-12-21T21:25:50.952Z,10.26
2018-12-21T21:28:20.679Z,10.31
2018-12-21T21:31:14.529Z,10.29
2018-12-21T21:33:50.562Z,10.23
2018-12-21T21:36:23.890Z,10.17
2018-12-21T21:39:06.938Z,10.15
2018-12-21T21:41:55.478Z,10.07
2018-12-21T21:47:33.145Z,10.17
2018-12-21T21:50:03.119Z,10.05
2018-12-21T21:52:32.887Z,10.06
2018-12-21T21:55:02.637Z,10.03
